createdAt,value
2023-04-03T00:02:23.897Z,5.19
2023-04-03T00:05:27.354Z,5.21
2023-04-03T00:08:31.902Z,5.19
2023-04-03T00:11:34.691Z,5.19
2023-04-03T00:14:37.178Z,5.15
2023-04-03T00:17:40.057Z,5.14
2023-04-03T00:20:43.130Z,5.08
2023-04-03T00:23:46.025Z,5.11
2023-04-03T00:26:49.749Z,5.13
2023-04-03T00:29:52.570Z,5.12
2023-04-03T00:32:55.742Z,5.19
2023-04-03T00:35:58.683Z,5.20
2023-04-03T00:39:01.385Z,5.22
2023-04-03T00:42:04.231Z,5.24
2023-04-03T00:45:06.789Z,5.20
2023-04-03T00:48:13.563Z,5.24
2023-04-03T00:51:20.320Z,5.23
2023-04-03T00:54:23.466Z,5.17
2023-04-03T00:57:26.166Z,5.16
2023-04-03T01:00:29.550Z,5.13
2023-04-03T01:03:32.611Z,5.20
2023-04-03T01:06:38.826Z,5.18
2023-04-03T01:09:42.383Z,5.08
2023-04-03T01:12:47.367Z,5.08
2023-04-03T01:15:50.018Z,5.08
2023-04-03T01:18:52.949Z,5.08
2023-04-03T01:22:18.519Z,5.04
2023-04-03T01:25:21.479Z,5.16
2023-04-03T01:28:28.341Z,4.99
2023-04-03T01:31:54.591Z,5.07
2023-04-03T01:34:57.754Z,4.93
2023-04-03T01:38:00.764Z,4.89
2023-04-03T01:41:03.366Z,4.77
2023-04-03T01:44:06.545Z,4.74
2023-04-03T01:47:09.552Z,4.79
2023-04-03T01:50:12.788Z,4.60
2023-04-03T01:53:15.659Z,4.59
2023-04-03T01:56:18.586Z,4.50
2023-04-03T01:59:21.348Z,4.39
2023-04-03T02:02:24.301Z,4.50
2023-04-03T02:05:28.100Z,4.52
2023-04-03T02:08:30.655Z,4.47
2023-04-03T02:11:33.661Z,4.53
2023-04-03T02:14:36.257Z,4.61
2023-04-03T02:17:39.241Z,4.62
2023-04-03T02:20:42.070Z,4.50
2023-04-03T02:23:44.672Z,4.34
2023-04-03T02:26:48.129Z,4.13
2023-04-03T02:29:51.046Z,4.08
2023-04-03T02:32:54.023Z,4.03
2023-04-03T02:35:57.706Z,3.86
2023-04-03T02:39:00.860Z,3.75
2023-04-03T02:42:04.075Z,3.67
2023-04-03T02:45:07.362Z,3.72
2023-04-03T02:48:09.956Z,3.53
2023-04-03T02:51:12.689Z,3.58
2023-04-03T02:54:15.536Z,3.72
2023-04-03T02:57:20.758Z,3.77
2023-04-03T03:00:23.637Z,3.73
2023-04-03T03:03:26.687Z,3.82
2023-04-03T03:06:29.268Z,3.69
2023-04-03T03:09:32.345Z,3.81
2023-04-03T03:12:34.887Z,3.76
2023-04-03T03:15:37.648Z,3.88
2023-04-03T03:18:40.469Z,4.00
2023-04-03T03:21:43.473Z,4.12
2023-04-03T03:24:46.208Z,4.19
2023-04-03T03:27:49.015Z,4.15
2023-04-03T03:30:51.615Z,4.23
2023-04-03T03:33:54.427Z,4.27
2023-04-03T03:36:58.161Z,4.19
2023-04-03T03:40:01.193Z,4.16
2023-04-03T03:43:04.253Z,4.21
2023-04-03T03:46:07.547Z,4.13
2023-04-03T03:49:10.280Z,4.06
2023-04-03T03:52:13.693Z,4.09
2023-04-03T03:55:16.408Z,4.09
2023-04-03T03:58:19.690Z,4.05
2023-04-03T04:01:24.286Z,4.05
2023-04-03T04:04:27.704Z,4.06
2023-04-03T04:07:31.516Z,4.12
2023-04-03T04:10:38.393Z,4.21
2023-04-03T04:13:41.897Z,4.15
2023-04-03T04:16:45.864Z,4.11
2023-04-03T04:19:49.671Z,4.16
2023-04-03T04:22:52.944Z,4.11
2023-04-03T04:25:56.093Z,4.12
2023-04-03T04:28:59.414Z,4.20
2023-04-03T04:32:05.489Z,4.19
2023-04-03T04:35:09.527Z,4.22
2023-04-03T04:38:13.055Z,4.25
2023-04-03T04:41:17.072Z,4.26
2023-04-03T04:44:21.608Z,4.22
2023-04-03T04:47:24.613Z,4.04
2023-04-03T04:50:27.584Z,4.03
2023-04-03T04:53:31.579Z,4.03
2023-04-03T04:56:34.792Z,4.07
2023-04-03T04:59:38.317Z,4.08
2023-04-03T05:02:43.007Z,4.20
2023-04-03T05:05:46.584Z,4.15
2023-04-03T05:08:49.805Z,4.08
2023-04-03T05:11:53.027Z,4.14
2023-04-03T05:14:56.366Z,4.16
2023-04-03T05:17:59.978Z,4.08
2023-04-03T05:21:02.819Z,4.13
2023-04-03T05:24:10.175Z,4.01
2023-04-03T05:27:15.305Z,3.89
2023-04-03T05:30:18.919Z,3.83
2023-04-03T05:33:23.431Z,3.74
2023-04-03T05:36:27.676Z,3.81
2023-04-03T05:39:32.678Z,3.95
2023-04-03T05:42:35.894Z,4.12
2023-04-03T05:45:38.701Z,5.41
2023-04-03T05:48:41.568Z,5.29
2023-04-03T05:51:46.470Z,5.27
2023-04-03T05:54:50.031Z,5.10
2023-04-03T05:57:53.582Z,5.13
2023-04-03T06:00:57.293Z,5.32
2023-04-03T06:04:00.417Z,5.24
2023-04-03T06:07:03.523Z,5.31
2023-04-03T06:10:07.896Z,5.22
2023-04-03T06:13:10.644Z,5.11
2023-04-03T06:16:16.414Z,4.99
2023-04-03T06:19:19.117Z,5.07
2023-04-03T06:22:22.410Z,5.06
2023-04-03T06:25:25.596Z,5.04
2023-04-03T06:28:28.763Z,5.24
2023-04-03T06:31:32.100Z,5.35
2023-04-03T06:34:35.709Z,5.64
2023-04-03T06:37:38.635Z,5.73
2023-04-03T06:40:41.497Z,5.87
2023-04-03T06:43:47.090Z,5.94
2023-04-03T06:46:50.596Z,6.22
2023-04-03T06:49:53.405Z,6.01
2023-04-03T06:52:57.766Z,5.91
2023-04-03T06:56:00.425Z,6.30
2023-04-03T06:59:04.025Z,6.37
2023-04-03T07:02:07.809Z,6.30
2023-04-03T07:05:10.707Z,6.08
2023-04-03T07:08:13.391Z,6.19
2023-04-03T07:11:16.532Z,6.26
2023-04-03T07:14:19.361Z,6.42
2023-04-03T07:17:22.390Z,7.23
2023-04-03T07:20:25.054Z,7.66
2023-04-03T07:23:28.559Z,8.00
2023-04-03T07:26:31.561Z,8.07
2023-04-03T07:29:34.356Z,8.98
2023-04-03T07:32:37.768Z,8.68
2023-04-03T07:35:41.392Z,8.73
2023-04-03T07:38:44.219Z,9.48
2023-04-03T07:41:47.131Z,9.78
2023-04-03T07:44:49.730Z,9.84
2023-04-03T07:47:53.075Z,9.81
2023-04-03T07:51:00.647Z,10.18
2023-04-03T07:54:04.098Z,10.38
2023-04-03T07:57:07.079Z,9.72
2023-04-03T08:00:14.613Z,9.40
2023-04-03T08:03:20.409Z,10.23
2023-04-03T08:06:32.998Z,10.16
2023-04-03T08:09:40.567Z,9.44
2023-04-03T08:12:43.222Z,9.75
2023-04-03T08:15:46.319Z,10.13
2023-04-03T08:18:49.514Z,9.82
2023-04-03T08:21:52.584Z,9.74
2023-04-03T08:24:59.420Z,9.94
2023-04-03T08:28:03.207Z,9.59
2023-04-03T08:31:08.006Z,10.32
2023-04-03T08:34:11.114Z,10.46
2023-04-03T08:37:13.829Z,10.46
2023-04-03T08:40:18.124Z,10.87
2023-04-03T08:44:17.364Z,10.65
2023-04-03T08:47:33.731Z,11.40
2023-04-03T08:50:45.847Z,12.07
2023-04-03T08:54:15.665Z,12.06
2023-04-03T08:57:24.743Z,11.95
2023-04-03T09:00:31.809Z,11.93
2023-04-03T09:03:38.462Z,12.21
2023-04-03T09:06:44.243Z,11.98
2023-04-03T09:09:49.726Z,12.05
2023-04-03T09:13:26.522Z,13.13
2023-04-03T09:16:53.451Z,12.10
2023-04-03T09:20:10.874Z,11.33
2023-04-03T09:23:29.944Z,11.66
2023-04-03T09:26:55.786Z,11.19
2023-04-03T09:29:58.869Z,12.81
2023-04-03T09:33:02.692Z,12.96
2023-04-03T09:36:05.998Z,13.61
2023-04-03T09:39:18.675Z,13.55
2023-04-03T09:42:23.704Z,12.98
2023-04-03T09:45:35.120Z,12.10
2023-04-03T09:48:37.759Z,13.13
2023-04-03T09:51:41.903Z,14.27
2023-04-03T09:54:44.742Z,12.20
2023-04-03T09:57:51.574Z,11.46
2023-04-03T10:01:03.779Z,12.26
2023-04-03T10:04:09.293Z,11.77
2023-04-03T10:07:36.252Z,12.04
2023-04-03T10:10:40.369Z,12.41
2023-04-03T10:13:57.091Z,11.68
2023-04-03T10:17:11.182Z,12.56
2023-04-03T10:20:35.507Z,13.24
2023-04-03T10:23:43.260Z,12.86
2023-04-03T10:26:57.790Z,13.01
2023-04-03T10:30:30.645Z,13.41
2023-04-03T10:33:54.420Z,12.39
2023-04-03T10:36:59.909Z,11.68
2023-04-03T10:40:45.936Z,12.77
2023-04-03T10:43:58.199Z,13.50
2023-04-03T10:47:12.352Z,13.89
2023-04-03T10:50:27.335Z,13.92
2023-04-03T10:53:40.807Z,11.76
2023-04-03T10:57:04.451Z,12.70
2023-04-03T11:00:39.573Z,10.80
2023-04-03T11:03:49.656Z,9.01
2023-04-03T11:07:04.305Z,10.31
2023-04-03T11:10:14.817Z,9.59
2023-04-03T11:13:24.094Z,8.69
2023-04-03T11:16:43.489Z,9.95
2023-04-03T11:19:56.357Z,10.61
2023-04-03T11:23:04.210Z,11.33
2023-04-03T11:26:15.734Z,11.57
2023-04-03T11:29:35.799Z,11.78
2023-04-03T11:33:00.655Z,11.96
2023-04-03T11:36:25.005Z,12.49
2023-04-03T11:39:33.159Z,13.02
2023-04-03T11:42:39.240Z,12.54
2023-04-03T11:45:54.094Z,11.65
2023-04-03T11:48:57.544Z,11.45
2023-04-03T11:52:00.246Z,11.14
2023-04-03T11:55:03.169Z,11.28
2023-04-03T11:58:14.437Z,10.96
2023-04-03T12:01:50.200Z,11.17
2023-04-03T12:05:30.969Z,10.28
2023-04-03T12:08:33.510Z,10.05
2023-04-03T12:11:37.161Z,11.14
2023-04-03T12:14:39.731Z,10.23
2023-04-03T12:17:42.961Z,10.15
2023-04-03T12:20:57.264Z,9.16
2023-04-03T12:24:09.276Z,8.58
2023-04-03T12:27:14.863Z,8.11
2023-04-03T12:30:24.781Z,7.82
2023-04-03T12:33:38.454Z,8.13
2023-04-03T12:36:50.208Z,7.57
2023-04-03T12:39:57.132Z,8.15
2023-04-03T12:43:11.351Z,8.06
2023-04-03T12:46:20.466Z,7.72
2023-04-03T12:49:36.258Z,7.34
2023-04-03T12:52:44.481Z,7.10
2023-04-03T12:55:47.240Z,6.97
2023-04-03T12:58:53.645Z,7.18
2023-04-03T13:02:01.898Z,7.37
2023-04-03T13:05:11.007Z,7.10
2023-04-03T13:08:16.923Z,7.11
2023-04-03T13:11:21.879Z,7.12
2023-04-03T13:14:28.036Z,6.93
2023-04-03T13:17:31.063Z,7.27
2023-04-03T13:20:37.010Z,7.38
2023-04-03T13:23:41.858Z,7.29
2023-04-03T13:26:45.031Z,6.94
2023-04-03T13:29:52.367Z,6.98
2023-04-03T13:32:57.803Z,6.90
2023-04-03T13:36:24.691Z,6.78
2023-04-03T13:39:31.230Z,6.89
2023-04-03T13:42:37.580Z,6.88
2023-04-03T13:45:40.830Z,6.70
2023-04-03T13:48:52.577Z,6.74
2023-04-03T13:52:06.551Z,6.47
2023-04-03T13:55:32.010Z,6.55
2023-04-03T13:58:36.809Z,6.57
2023-04-03T14:01:45.647Z,6.64
2023-04-03T14:04:54.287Z,6.30
2023-04-03T14:07:57.963Z,6.70
2023-04-03T14:11:01.493Z,6.62
2023-04-03T14:14:12.991Z,6.61
2023-04-03T14:17:25.084Z,6.65
2023-04-03T14:20:29.287Z,6.36
2023-04-03T14:23:32.466Z,6.17
2023-04-03T14:26:35.150Z,6.07
2023-04-03T14:29:37.951Z,6.22
2023-04-03T14:32:40.697Z,6.38
2023-04-03T14:35:44.059Z,6.51
2023-04-03T14:38:48.045Z,6.43
2023-04-03T14:41:51.139Z,6.29
2023-04-03T14:44:53.746Z,6.41
2023-04-03T14:47:57.694Z,6.38
2023-04-03T14:51:05.672Z,6.16
2023-04-03T14:54:18.557Z,6.18
2023-04-03T14:57:23.428Z,6.29
2023-04-03T15:00:26.264Z,6.40
2023-04-03T15:03:28.916Z,6.34
2023-04-03T15:06:33.272Z,6.20
2023-04-03T15:09:36.989Z,6.11
2023-04-03T15:12:43.909Z,6.21
2023-04-03T15:15:46.378Z,6.23
2023-04-03T15:18:49.726Z,6.20
2023-04-03T15:21:52.193Z,6.13
2023-04-03T15:24:54.970Z,5.98
2023-04-03T15:27:58.269Z,5.89
2023-04-03T15:31:01.163Z,5.98
2023-04-03T15:34:03.823Z,5.88
2023-04-03T15:37:06.744Z,5.88
2023-04-03T15:40:09.743Z,5.85
2023-04-03T15:43:12.847Z,5.80
2023-04-03T15:46:15.871Z,5.83
2023-04-03T15:49:20.257Z,5.82
2023-04-03T15:52:23.015Z,5.87
2023-04-03T15:55:26.843Z,5.73
2023-04-03T15:58:29.410Z,5.58
2023-04-03T16:01:32.903Z,5.54
2023-04-03T16:04:36.060Z,5.49
2023-04-03T16:07:40.019Z,5.45
2023-04-03T16:10:42.994Z,5.39
2023-04-03T16:13:45.704Z,5.35
2023-04-03T16:16:48.489Z,5.34
2023-04-03T16:19:51.065Z,5.28
2023-04-03T16:22:53.999Z,5.28
2023-04-03T16:25:57.113Z,5.18
2023-04-03T16:28:59.920Z,5.21
2023-04-03T16:32:02.775Z,5.17
2023-04-03T16:35:06.513Z,4.90
2023-04-03T16:38:09.124Z,4.90
2023-04-03T16:41:12.014Z,4.95
2023-04-03T16:44:14.779Z,4.93
2023-04-03T16:47:20.203Z,4.87
2023-04-03T16:50:22.836Z,4.89
2023-04-03T16:53:26.502Z,4.75
2023-04-03T16:56:29.035Z,4.70
2023-04-03T16:59:31.959Z,4.57
2023-04-03T17:02:34.549Z,4.49
2023-04-03T17:05:37.600Z,4.47
2023-04-03T17:08:40.779Z,4.38
2023-04-03T17:11:46.233Z,4.34
2023-04-03T17:14:50.583Z,4.37
2023-04-03T17:17:53.711Z,4.17
2023-04-03T17:20:56.921Z,4.14
2023-04-03T17:24:05.142Z,4.09
2023-04-03T17:27:07.910Z,3.96
2023-04-03T17:30:11.506Z,3.81
2023-04-03T17:33:14.356Z,3.67
2023-04-03T17:36:17.159Z,3.60
2023-04-03T17:39:19.735Z,3.63
2023-04-03T17:42:23.066Z,3.63
2023-04-03T17:45:25.673Z,3.74
2023-04-03T17:48:28.528Z,3.63
2023-04-03T17:51:34.407Z,3.66
2023-04-03T17:54:37.482Z,3.64
2023-04-03T17:57:40.162Z,3.58
2023-04-03T18:00:43.070Z,3.44
2023-04-03T18:03:46.801Z,3.44
2023-04-03T18:06:52.087Z,3.30
2023-04-03T18:09:56.863Z,3.32
2023-04-03T18:12:59.659Z,3.36
2023-04-03T18:16:02.735Z,3.35
2023-04-03T18:19:21.982Z,3.29
2023-04-03T18:22:26.722Z,3.26
2023-04-03T18:28:39.851Z,3.21
2023-04-03T18:31:44.465Z,3.09
2023-04-03T18:34:47.350Z,3.03
2023-04-03T18:37:50.043Z,3.06
2023-04-03T18:40:53.312Z,3.13
2023-04-03T18:43:57.938Z,3.15
2023-04-03T18:47:01.107Z,3.12
2023-04-03T18:50:05.431Z,3.02
2023-04-03T18:53:08.451Z,2.94
2023-04-03T18:56:11.035Z,2.88
2023-04-03T18:59:14.594Z,2.92
2023-04-03T19:02:18.644Z,2.81
2023-04-03T19:05:22.225Z,2.73
2023-04-03T19:08:25.362Z,2.76
2023-04-03T19:11:30.142Z,2.69
2023-04-03T19:14:33.439Z,2.72
2023-04-03T19:17:36.785Z,2.63
2023-04-03T19:20:39.614Z,2.59
2023-04-03T19:23:45.977Z,2.61
2023-04-03T19:26:48.671Z,2.60
2023-04-03T19:29:54.815Z,2.59
2023-04-03T19:32:58.797Z,2.67
2023-04-03T19:36:05.530Z,2.55
2023-04-03T19:39:08.259Z,2.42
2023-04-03T19:42:11.150Z,2.43
2023-04-03T19:45:15.587Z,2.44
2023-04-03T19:48:18.689Z,2.41
2023-04-03T19:51:21.837Z,2.38
2023-04-03T19:54:25.485Z,2.24
2023-04-03T19:57:28.202Z,2.30
2023-04-03T20:00:31.698Z,2.35
2023-04-03T20:03:34.801Z,2.40
2023-04-03T20:06:37.953Z,2.36
2023-04-03T20:09:41.697Z,2.21
2023-04-03T20:12:44.947Z,2.11
2023-04-03T20:15:48.050Z,2.04
2023-04-03T20:18:52.980Z,2.18
2023-04-03T20:21:56.128Z,2.11
2023-04-03T20:25:05.910Z,2.12
2023-04-03T20:28:10.972Z,2.16
2023-04-03T20:31:15.497Z,2.03
2023-04-03T20:34:18.365Z,2.03
2023-04-03T20:37:24.072Z,2.02
2023-04-03T20:40:27.527Z,1.90
2023-04-03T20:43:32.462Z,1.92
2023-04-03T20:46:51.543Z,1.86
2023-04-03T20:49:55.612Z,1.80
2023-04-03T20:52:58.939Z,1.97
2023-04-03T20:56:01.468Z,1.91
2023-04-03T20:59:05.095Z,1.91
2023-04-03T21:02:08.464Z,1.79
2023-04-03T21:05:11.875Z,1.81
2023-04-03T21:08:52.962Z,1.90
2023-04-03T21:12:33.189Z,1.94
2023-04-03T21:15:59.839Z,1.83
2023-04-03T21:19:09.905Z,1.86
2023-04-03T21:22:13.512Z,1.82
2023-04-03T21:25:16.274Z,1.81
2023-04-03T21:28:19.131Z,1.78
2023-04-03T21:31:22.405Z,1.71
2023-04-03T21:34:27.761Z,1.76
2023-04-03T21:37:33.473Z,1.82
2023-04-03T21:40:36.094Z,1.79
2023-04-03T21:43:38.911Z,1.79
2023-04-03T21:46:41.487Z,1.70
2023-04-03T21:49:44.439Z,1.68
2023-04-03T21:52:46.974Z,1.77
2023-04-03T21:55:54.381Z,1.69
2023-04-03T21:58:58.674Z,1.52
2023-04-03T22:02:02.049Z,1.52
2023-04-03T22:05:05.253Z,1.41
2023-04-03T22:08:07.727Z,1.42
2023-04-03T22:11:14.929Z,1.44
2023-04-03T22:14:18.595Z,1.52
2023-04-03T22:17:21.441Z,1.32
2023-04-03T22:20:24.008Z,1.37
2023-04-03T22:23:27.453Z,1.25
2023-04-03T22:26:29.959Z,1.19
2023-04-03T22:29:33.222Z,1.15
2023-04-03T22:32:36.125Z,1.15
2023-04-03T22:35:46.399Z,1.22
2023-04-03T22:38:48.913Z,1.14
2023-04-03T22:41:52.613Z,1.09
2023-04-03T22:44:55.214Z,1.15
2023-04-03T22:47:58.863Z,1.13
2023-04-03T22:51:02.271Z,1.17
2023-04-03T22:54:05.242Z,1.09
2023-04-03T22:57:09.618Z,1.05
2023-04-03T23:00:13.116Z,1.14
2023-04-03T23:03:16.139Z,1.10
2023-04-03T23:06:19.274Z,1.11
2023-04-03T23:09:22.204Z,1.06
2023-04-03T23:12:25.013Z,1.15
2023-04-03T23:15:27.784Z,1.10
2023-04-03T23:18:32.554Z,1.12
2023-04-03T23:21:35.201Z,0.98
2023-04-03T23:24:41.732Z,0.99
2023-04-03T23:27:51.635Z,0.86
2023-04-03T23:30:59.521Z,0.65
2023-04-03T23:34:02.009Z,0.54
2023-04-03T23:37:04.807Z,0.45
2023-04-03T23:40:08.417Z,0.36
2023-04-03T23:43:12.729Z,0.33
2023-04-03T23:46:15.301Z,0.40
2023-04-03T23:49:18.127Z,0.52
2023-04-03T23:52:21.201Z,0.63
2023-04-03T23:55:24.544Z,0.73
2023-04-03T23:58:27.069Z,0.70
